createdAt,value
2018-08-13T00:00:19.311Z,88.51
2018-08-13T00:02:49.419Z,89.06
2018-08-13T00:05:18.681Z,88.25
2018-08-13T00:07:48.283Z,89.30
2018-08-13T00:10:18.041Z,91.18
2018-08-13T00:12:47.602Z,90.20
2018-08-13T00:15:16.927Z,89.79
2018-08-13T00:17:46.302Z,88.95
2018-08-13T00:20:15.912Z,89.19
2018-08-13T00:22:46.357Z,89.03
2018-08-13T00:25:15.873Z,89.70
2018-08-13T00:27:45.238Z,90.13
2018-08-13T00:30:14.632Z,91.21
2018-08-13T00:32:43.992Z,90.36
2018-08-13T00:35:13.624Z,90.42
2018-08-13T00:37:43.022Z,89.69
2018-08-13T00:40:13.634Z,91.62
2018-08-13T00:42:43.636Z,92.41
2018-08-13T00:45:14.004Z,92.09
2018-08-13T00:47:43.696Z,91.42
2018-08-13T00:50:14.648Z,91.08
2018-08-13T00:52:45.429Z,91.04
2018-08-13T00:55:15.762Z,91.39
2018-08-13T00:57:45.541Z,90.40
2018-08-13T01:00:17.734Z,91.09
2018-08-13T01:02:47.706Z,91.76
2018-08-13T01:05:18.256Z,91.73
2018-08-13T01:07:47.939Z,92.50
2018-08-13T01:10:18.625Z,92.23
2018-08-13T01:12:48.036Z,90.83
2018-08-13T01:15:18.567Z,91.35
2018-08-13T01:17:49.375Z,91.40
2018-08-13T01:20:19.867Z,91.84
2018-08-13T01:22:49.190Z,93.01
2018-08-13T01:25:20.078Z,92.15
2018-08-13T01:27:50.432Z,92.48
2018-08-13T01:30:20.088Z,92.03
2018-08-13T01:32:49.672Z,91.32
2018-08-13T01:35:19.768Z,91.75
2018-08-13T01:37:49.078Z,92.00
2018-08-13T01:40:19.602Z,91.86
2018-08-13T01:42:49.151Z,91.81
2018-08-13T01:45:18.670Z,91.68
2018-08-13T01:47:48.881Z,91.95
2018-08-13T01:50:18.330Z,91.66
2018-08-13T01:52:47.875Z,91.86
2018-08-13T01:55:17.639Z,93.19
2018-08-13T01:57:47.156Z,92.78
2018-08-13T02:00:17.389Z,92.39
2018-08-13T02:02:47.080Z,92.83
2018-08-13T02:05:16.558Z,93.18
2018-08-13T02:07:46.054Z,92.74
2018-08-13T02:10:15.987Z,93.45
2018-08-13T02:12:45.850Z,93.93
2018-08-13T02:15:15.674Z,94.38
2018-08-13T02:17:45.161Z,94.01
2018-08-13T02:20:14.756Z,93.09
2018-08-13T02:22:44.654Z,93.43
2018-08-13T02:25:14.144Z,93.83
2018-08-13T02:27:44.536Z,94.22
2018-08-13T02:30:15.247Z,93.53
2018-08-13T02:32:45.156Z,94.32
2018-08-13T02:35:14.893Z,94.06
2018-08-13T02:37:44.619Z,94.25
2018-08-13T02:40:14.078Z,94.38
2018-08-13T02:42:43.589Z,96.80
2018-08-13T02:45:13.194Z,96.12
2018-08-13T02:47:43.002Z,95.01
2018-08-13T02:50:14.303Z,96.53
2018-08-13T02:52:43.724Z,95.82
2018-08-13T02:55:13.451Z,95.35
2018-08-13T02:57:43.380Z,95.74
2018-08-13T03:00:13.299Z,95.00
2018-08-13T03:02:42.788Z,94.73
2018-08-13T03:05:14.028Z,95.53
2018-08-13T03:07:43.543Z,96.02
2018-08-13T03:10:13.728Z,95.51
2018-08-13T03:12:43.520Z,96.10
2018-08-13T03:15:14.381Z,95.75
2018-08-13T03:17:44.956Z,95.68
2018-08-13T03:20:14.591Z,94.96
2018-08-13T03:22:44.415Z,95.12
2018-08-13T03:25:14.725Z,95.21
2018-08-13T03:27:44.149Z,95.65
2018-08-13T03:30:14.466Z,95.46
2018-08-13T03:32:43.767Z,96.23
2018-08-13T03:35:13.549Z,95.58
2018-08-13T03:37:42.928Z,95.09
2018-08-13T03:40:13.851Z,94.54
2018-08-13T03:42:43.804Z,94.63
2018-08-13T03:45:13.472Z,95.05
2018-08-13T03:47:44.582Z,95.88
2018-08-13T03:50:14.947Z,95.83
2018-08-13T03:52:44.233Z,95.35
2018-08-13T03:55:13.597Z,95.08
2018-08-13T03:57:43.394Z,95.69
2018-08-13T04:00:15.463Z,95.98
2018-08-13T04:02:45.313Z,94.53
2018-08-13T04:05:15.365Z,95.08
2018-08-13T04:07:44.994Z,96.08
2018-08-13T04:10:15.415Z,96.03
2018-08-13T04:12:45.291Z,96.08
2018-08-13T04:15:17.555Z,95.68
2018-08-13T04:17:47.408Z,94.77
2018-08-13T04:20:17.344Z,95.51
2018-08-13T04:22:47.998Z,95.08
2018-08-13T04:25:17.571Z,95.90
2018-08-13T04:27:47.801Z,96.74
2018-08-13T04:30:18.248Z,98.42
2018-08-13T04:32:48.386Z,98.63
2018-08-13T04:35:18.479Z,98.91
2018-08-13T04:37:48.143Z,98.25
2018-08-13T04:40:18.653Z,97.10
2018-08-13T04:42:48.614Z,95.91
2018-08-13T04:45:18.181Z,96.99
2018-08-13T04:47:51.483Z,96.09
2018-08-13T04:50:21.047Z,95.90
2018-08-13T04:52:50.982Z,95.70
2018-08-13T04:55:21.760Z,96.00
2018-08-13T04:57:51.494Z,95.83
2018-08-13T05:00:21.025Z,96.03
2018-08-13T05:02:50.395Z,96.66
2018-08-13T05:05:19.891Z,96.79
2018-08-13T05:07:49.551Z,95.92
2018-08-13T05:10:19.249Z,93.93
2018-08-13T05:12:48.579Z,93.90
2018-08-13T05:15:18.583Z,93.40
2018-08-13T05:17:48.013Z,92.86
2018-08-13T05:20:17.761Z,92.01
2018-08-13T05:22:47.320Z,90.68
2018-08-13T05:25:16.768Z,90.44
2018-08-13T05:27:46.408Z,89.47
2018-08-13T05:30:16.230Z,89.43
2018-08-13T05:32:45.613Z,88.82
2018-08-13T05:35:15.296Z,88.34
2018-08-13T05:37:44.812Z,87.23
2018-08-13T05:40:14.632Z,86.09
2018-08-13T05:42:44.079Z,86.23
2018-08-13T05:45:13.727Z,85.25
2018-08-13T05:47:42.989Z,84.18
2018-08-13T05:50:12.507Z,82.49
2018-08-13T05:52:43.059Z,82.76
2018-08-13T05:55:12.502Z,83.69
2018-08-13T05:57:42.900Z,82.33
2018-08-13T06:00:13.764Z,82.92
2018-08-13T06:02:43.793Z,80.72
2018-08-13T06:05:13.886Z,80.13
2018-08-13T06:07:43.527Z,77.90
2018-08-13T06:10:13.680Z,78.69
2018-08-13T06:12:42.921Z,77.87
2018-08-13T06:15:13.939Z,77.57
2018-08-13T06:17:44.109Z,77.85
2018-08-13T06:20:14.462Z,77.91
2018-08-13T06:22:44.619Z,77.33
2018-08-13T06:25:14.849Z,78.34
2018-08-13T06:27:44.359Z,77.38
2018-08-13T06:30:15.454Z,79.10
2018-08-13T06:32:45.352Z,77.04
2018-08-13T06:35:15.011Z,75.37
2018-08-13T06:37:44.734Z,76.14
2018-08-13T06:40:15.122Z,76.40
2018-08-13T06:42:44.630Z,76.04
2018-08-13T06:45:14.375Z,75.58
2018-08-13T06:47:43.995Z,77.19
2018-08-13T06:50:14.913Z,76.50
2018-08-13T06:52:44.539Z,75.56
2018-08-13T06:55:14.133Z,75.41
2018-08-13T06:57:44.057Z,74.45
2018-08-13T07:00:14.830Z,73.84
2018-08-13T07:02:44.282Z,73.64
2018-08-13T07:05:13.912Z,73.24
2018-08-13T07:07:43.128Z,71.97
2018-08-13T07:10:14.072Z,70.31
2018-08-13T07:12:45.301Z,67.89
2018-08-13T07:15:15.464Z,66.09
2018-08-13T07:17:45.220Z,64.57
2018-08-13T07:20:16.309Z,63.72
2018-08-13T07:22:46.067Z,62.52
2018-08-13T07:25:15.732Z,63.05
2018-08-13T07:27:45.351Z,64.13
2018-08-13T07:30:15.849Z,61.80
2018-08-13T07:32:45.905Z,63.01
2018-08-13T07:35:15.385Z,64.38
2018-08-13T07:37:45.071Z,65.64
2018-08-13T07:40:17.663Z,65.78
2018-08-13T07:42:47.211Z,66.90
2018-08-13T07:45:16.718Z,68.16
2018-08-13T07:47:46.884Z,67.15
2018-08-13T07:50:17.236Z,67.81
2018-08-13T07:52:46.641Z,68.17
2018-08-13T07:55:17.135Z,68.72
2018-08-13T07:57:47.235Z,69.53
2018-08-13T08:00:18.406Z,69.18
2018-08-13T08:02:48.650Z,67.86
2018-08-13T08:05:18.143Z,67.38
2018-08-13T08:07:48.011Z,68.31
2018-08-13T08:10:18.346Z,65.56
2018-08-13T08:12:47.871Z,66.80
2018-08-13T08:15:18.445Z,65.55
2018-08-13T08:17:47.870Z,62.44
2018-08-13T08:20:17.425Z,61.94
2018-08-13T08:22:46.940Z,63.11
2018-08-13T08:25:18.200Z,64.81
2018-08-13T08:27:48.280Z,61.37
2018-08-13T08:30:18.444Z,62.71
2018-08-13T08:32:48.002Z,62.18
2018-08-13T08:35:18.223Z,62.34
2018-08-13T08:37:47.635Z,60.97
2018-08-13T08:40:19.190Z,61.72
2018-08-13T08:42:49.301Z,60.85
2018-08-13T08:45:22.671Z,60.93
2018-08-13T08:47:52.820Z,60.43
2018-08-13T08:50:23.017Z,61.21
2018-08-13T08:52:52.338Z,59.67
2018-08-13T08:55:22.564Z,59.05
2018-08-13T08:57:51.986Z,59.53
2018-08-13T09:00:22.804Z,59.17
2018-08-13T09:02:53.145Z,54.29
2018-08-13T09:05:22.751Z,55.26
2018-08-13T09:07:53.160Z,54.01
2018-08-13T09:10:22.673Z,55.69
2018-08-13T09:12:51.943Z,55.28
2018-08-13T09:15:21.319Z,54.63
2018-08-13T09:18:01.932Z,53.16
2018-08-13T09:20:42.162Z,52.85
2018-08-13T09:23:22.524Z,51.31
2018-08-13T09:26:03.111Z,50.66
2018-08-13T09:28:43.269Z,50.57
2018-08-13T09:31:29.217Z,49.98
2018-08-13T09:34:14.146Z,50.88
2018-08-13T09:36:43.526Z,51.15
2018-08-13T09:39:12.920Z,49.12
2018-08-13T09:41:43.079Z,51.04
2018-08-13T09:44:12.451Z,50.40
2018-08-13T09:46:41.957Z,48.77
2018-08-13T09:49:12.339Z,48.71
2018-08-13T09:51:42.161Z,43.27
2018-08-13T09:54:11.687Z,45.90
2018-08-13T09:56:41.198Z,45.09
2018-08-13T09:59:10.570Z,46.37
2018-08-13T10:01:40.078Z,43.45
2018-08-13T10:04:09.365Z,43.89
2018-08-13T10:06:38.801Z,45.17
2018-08-13T10:09:09.017Z,45.39
2018-08-13T10:11:38.360Z,46.05
2018-08-13T10:14:08.325Z,45.43
2018-08-13T10:16:37.941Z,46.89
2018-08-13T10:19:07.321Z,44.41
2018-08-13T10:21:37.437Z,46.54
2018-08-13T10:24:06.951Z,45.70
2018-08-13T10:26:36.303Z,47.57
2018-08-13T10:29:05.850Z,47.12
2018-08-13T10:31:35.360Z,46.90
2018-08-13T10:34:04.825Z,48.97
2018-08-13T10:36:34.223Z,45.77
2018-08-13T10:39:04.440Z,44.16
2018-08-13T10:41:33.791Z,43.43
2018-08-13T10:44:03.200Z,42.02
2018-08-13T10:46:32.560Z,41.78
2018-08-13T10:49:02.358Z,40.87
2018-08-13T10:51:31.856Z,40.70
2018-08-13T10:54:01.418Z,43.13
2018-08-13T10:56:30.824Z,44.37
2018-08-13T10:59:00.668Z,43.10
2018-08-13T11:01:30.157Z,41.55
2018-08-13T11:04:00.255Z,42.07
2018-08-13T11:06:29.789Z,41.20
2018-08-13T11:09:00.423Z,41.43
2018-08-13T11:11:29.819Z,42.65
2018-08-13T11:13:59.356Z,41.42
2018-08-13T11:16:29.108Z,43.13
2018-08-13T11:18:58.914Z,43.00
2018-08-13T11:21:28.942Z,41.30
2018-08-13T11:23:58.353Z,39.87
2018-08-13T11:26:27.886Z,39.47
2018-08-13T11:28:57.259Z,38.98
2018-08-13T11:31:26.725Z,38.97
2018-08-13T11:33:56.269Z,39.63
2018-08-13T11:36:26.393Z,39.92
2018-08-13T11:38:56.263Z,40.00
2018-08-13T11:41:25.719Z,38.68
2018-08-13T11:43:55.873Z,36.23
2018-08-13T11:46:25.349Z,37.33
2018-08-13T11:48:55.663Z,34.67
2018-08-13T11:51:24.925Z,37.00
2018-08-13T11:53:54.290Z,37.95
2018-08-13T11:56:23.793Z,37.93
2018-08-13T11:58:53.312Z,39.66
2018-08-13T12:01:22.876Z,39.98
2018-08-13T12:03:53.327Z,42.39
2018-08-13T12:06:24.057Z,40.65
2018-08-13T12:08:53.838Z,38.97
2018-08-13T12:11:23.199Z,39.15
2018-08-13T12:13:52.806Z,38.27
2018-08-13T12:16:22.317Z,38.28
2018-08-13T12:18:51.715Z,38.36
2018-08-13T12:21:21.248Z,38.62
2018-08-13T12:23:50.726Z,39.72
2018-08-13T12:26:20.234Z,37.90
2018-08-13T12:28:49.998Z,38.00
2018-08-13T12:31:19.637Z,37.64
2018-08-13T12:33:49.568Z,37.52
2018-08-13T12:36:19.308Z,38.20
2018-08-13T12:38:49.547Z,36.75
2018-08-13T12:41:18.861Z,35.62
2018-08-13T12:43:48.104Z,35.60
2018-08-13T12:46:17.496Z,36.06
2018-08-13T12:48:46.990Z,36.14
2018-08-13T12:51:17.433Z,36.41
2018-08-13T12:53:46.884Z,36.41
2018-08-13T12:56:16.491Z,37.17
2018-08-13T12:58:45.971Z,37.27
2018-08-13T13:01:15.572Z,38.79
2018-08-13T13:03:46.094Z,36.28
2018-08-13T13:06:17.196Z,37.25
2018-08-13T13:08:46.547Z,37.49
2018-08-13T13:11:22.393Z,37.87
2018-08-13T13:13:51.724Z,36.71
2018-08-13T13:16:22.131Z,36.44
2018-08-13T13:18:51.589Z,38.29
2018-08-13T13:21:21.043Z,38.56
2018-08-13T13:23:50.519Z,40.04
2018-08-13T13:26:19.964Z,42.17
2018-08-13T13:28:50.669Z,42.15
2018-08-13T13:31:21.618Z,41.75
2018-08-13T13:33:51.162Z,43.47
2018-08-13T13:36:20.798Z,41.11
2018-08-13T13:38:50.192Z,42.58
2018-08-13T13:41:25.807Z,43.00
2018-08-13T13:43:55.285Z,44.55
2018-08-13T13:46:24.981Z,46.18
2018-08-13T13:48:54.279Z,45.34
2018-08-13T13:51:23.721Z,43.76
2018-08-13T13:53:53.209Z,42.53
2018-08-13T13:56:22.832Z,44.64
2018-08-13T13:58:52.345Z,41.55
2018-08-13T14:01:21.799Z,42.15
2018-08-13T14:03:51.417Z,44.92
2018-08-13T14:06:20.935Z,46.32
2018-08-13T14:08:50.516Z,45.80
2018-08-13T14:11:20.406Z,45.15
2018-08-13T14:13:49.826Z,45.20
2018-08-13T14:16:19.406Z,45.45
2018-08-13T14:18:49.522Z,45.22
2018-08-13T14:21:19.310Z,44.90
2018-08-13T14:23:48.869Z,43.05
2018-08-13T14:26:18.977Z,44.53
2018-08-13T14:28:48.483Z,41.60
2018-08-13T14:31:18.821Z,42.27
2018-08-13T14:33:48.328Z,40.55
2018-08-13T14:36:17.656Z,40.75
2018-08-13T14:38:47.068Z,41.57
2018-08-13T14:41:17.792Z,42.92
2018-08-13T14:43:47.924Z,45.04
2018-08-13T14:46:17.534Z,42.11
2018-08-13T14:48:47.558Z,41.22
2018-08-13T14:51:17.013Z,40.26
2018-08-13T14:53:46.371Z,39.86
2018-08-13T14:56:16.016Z,40.55
2018-08-13T14:58:45.355Z,39.65
2018-08-13T15:01:14.976Z,39.34
2018-08-13T15:03:44.445Z,40.75
2018-08-13T15:06:13.876Z,42.06
2018-08-13T15:08:43.260Z,40.01
2018-08-13T15:11:12.742Z,41.43
2018-08-13T15:13:42.021Z,42.59
2018-08-13T15:16:12.095Z,43.15
2018-08-13T15:18:41.563Z,41.72
2018-08-13T15:21:11.059Z,41.81
2018-08-13T15:23:40.896Z,43.93
2018-08-13T15:26:10.199Z,44.19
2018-08-13T15:28:41.291Z,45.36
2018-08-13T15:31:11.095Z,46.74
2018-08-13T15:33:40.499Z,46.20
2018-08-13T15:36:10.096Z,46.13
2018-08-13T15:38:39.605Z,48.65
2018-08-13T15:41:09.204Z,49.04
2018-08-13T15:43:38.926Z,49.05
2018-08-13T15:46:08.715Z,49.59
2018-08-13T15:48:38.191Z,48.47
2018-08-13T15:51:07.739Z,47.49
2018-08-13T15:53:37.753Z,49.11
2018-08-13T15:56:07.789Z,50.48
2018-08-13T15:58:37.544Z,51.13
2018-08-13T16:01:07.013Z,49.65
2018-08-13T16:03:36.917Z,50.92
2018-08-13T16:06:07.447Z,47.09
2018-08-13T16:08:37.258Z,50.24
2018-08-13T16:11:06.571Z,51.26
2018-08-13T16:13:36.017Z,51.35
2018-08-13T16:16:05.720Z,50.04
2018-08-13T16:18:35.510Z,52.07
2018-08-13T16:21:05.070Z,52.83
2018-08-13T16:23:34.695Z,54.64
2018-08-13T16:26:04.244Z,53.93
2018-08-13T16:28:33.792Z,55.16
2018-08-13T16:31:04.297Z,56.84
2018-08-13T16:33:33.684Z,56.55
2018-08-13T16:36:03.126Z,56.95
2018-08-13T16:38:32.643Z,55.20
2018-08-13T16:41:02.419Z,55.59
2018-08-13T16:43:33.435Z,55.10
2018-08-13T16:46:03.508Z,53.44
2018-08-13T16:48:33.604Z,53.65
2018-08-13T16:51:03.047Z,53.11
2018-08-13T16:53:32.985Z,54.08
2018-08-13T16:56:02.494Z,54.78
2018-08-13T16:58:32.052Z,55.78
2018-08-13T17:01:01.636Z,55.56
2018-08-13T17:03:31.188Z,57.49
2018-08-13T17:06:02.425Z,56.14
2018-08-13T17:08:32.295Z,57.20
2018-08-13T17:11:02.628Z,57.12
2018-08-13T17:13:32.320Z,58.50
2018-08-13T17:16:01.805Z,59.07
2018-08-13T17:18:31.461Z,59.18
2018-08-13T17:21:01.611Z,59.84
2018-08-13T17:23:31.295Z,60.96
2018-08-13T17:26:00.845Z,60.83
2018-08-13T17:28:30.981Z,61.43
2018-08-13T17:31:00.415Z,62.23
2018-08-13T17:33:30.024Z,62.28
2018-08-13T17:35:59.454Z,63.30
2018-08-13T17:38:29.315Z,63.58
2018-08-13T17:40:58.657Z,64.43
2018-08-13T17:43:28.011Z,63.48
2018-08-13T17:45:58.016Z,61.61
2018-08-13T17:48:28.043Z,60.41
2018-08-13T17:50:57.549Z,60.23
2018-08-13T17:53:26.948Z,60.62
2018-08-13T17:55:57.647Z,60.43
2018-08-13T17:58:27.640Z,60.11
2018-08-13T18:00:57.636Z,62.51
2018-08-13T18:03:29.780Z,63.23
2018-08-13T18:05:59.329Z,64.55
2018-08-13T18:08:30.600Z,65.31
2018-08-13T18:11:00.960Z,66.90
2018-08-13T18:13:31.678Z,66.08
2018-08-13T18:16:01.986Z,65.11
2018-08-13T18:18:33.879Z,65.93
2018-08-13T18:21:04.955Z,65.97
2018-08-13T18:23:35.612Z,65.68
2018-08-13T18:26:05.584Z,65.75
2018-08-13T18:28:36.593Z,63.78
2018-08-13T18:31:06.198Z,60.49
2018-08-13T18:33:36.093Z,58.38
2018-08-13T18:36:06.377Z,58.16
2018-08-13T18:38:36.839Z,60.50
2018-08-13T18:41:07.138Z,63.24
2018-08-13T18:43:37.239Z,63.62
2018-08-13T18:46:06.914Z,64.51
2018-08-13T18:48:36.599Z,65.18
2018-08-13T18:51:06.123Z,65.97
2018-08-13T18:53:35.920Z,65.31
2018-08-13T18:56:05.602Z,64.60
2018-08-13T18:58:35.241Z,64.44
2018-08-13T19:01:06.419Z,62.60
2018-08-13T19:03:36.558Z,63.88
2018-08-13T19:06:07.423Z,64.21
2018-08-13T19:08:38.832Z,65.11
2018-08-13T19:11:08.629Z,65.16
2018-08-13T19:13:38.582Z,66.02
2018-08-13T19:16:08.873Z,65.90
2018-08-13T19:18:39.806Z,66.55
2018-08-13T19:21:10.491Z,66.29
2018-08-13T19:23:41.215Z,65.59
2018-08-13T19:26:10.707Z,65.62
2018-08-13T19:28:40.101Z,67.43
2018-08-13T19:31:10.325Z,67.62
2018-08-13T19:33:40.230Z,68.32
2018-08-13T19:36:10.163Z,68.14
2018-08-13T19:38:40.738Z,68.37
2018-08-13T19:41:10.809Z,67.77
2018-08-13T19:43:41.267Z,67.43
2018-08-13T19:46:10.962Z,67.46
2018-08-13T19:48:40.849Z,68.26
2018-08-13T19:51:10.770Z,70.04
2018-08-13T19:53:40.248Z,70.45
2018-08-13T19:56:10.427Z,71.25
2018-08-13T19:58:40.162Z,71.03
2018-08-13T20:01:09.694Z,69.76
2018-08-13T20:03:39.166Z,69.48
2018-08-13T20:06:08.633Z,70.53
2018-08-13T20:08:38.796Z,70.32
2018-08-13T20:11:08.385Z,69.82
2018-08-13T20:13:38.217Z,69.57
2018-08-13T20:16:08.154Z,70.06
2018-08-13T20:18:38.008Z,69.79
2018-08-13T20:21:08.323Z,69.87
2018-08-13T20:23:37.779Z,69.93
2018-08-13T20:26:07.260Z,69.90
2018-08-13T20:28:36.921Z,71.70
2018-08-13T20:31:06.501Z,77.79
2018-08-13T20:33:36.231Z,81.30
2018-08-13T20:36:05.818Z,82.64
2018-08-13T20:38:34.963Z,86.81
2018-08-13T20:41:04.335Z,87.31
2018-08-13T20:43:33.789Z,86.44
2018-08-13T20:46:03.274Z,86.86
2018-08-13T20:48:33.197Z,86.80
2018-08-13T20:51:03.388Z,88.02
2018-08-13T20:53:32.889Z,92.52
2018-08-13T20:56:02.262Z,90.03
2018-08-13T20:58:31.652Z,88.08
2018-08-13T21:01:01.681Z,87.71
2018-08-13T21:03:31.467Z,90.23
2018-08-13T21:06:00.902Z,89.62
2018-08-13T21:08:31.114Z,91.62
2018-08-13T21:11:00.535Z,90.73
2018-08-13T21:13:30.932Z,92.28
2018-08-13T21:16:00.473Z,90.24
2018-08-13T21:18:30.882Z,90.54
2018-08-13T21:21:01.365Z,91.15
2018-08-13T21:23:30.804Z,92.97
2018-08-13T21:26:00.143Z,92.44
2018-08-13T21:28:29.767Z,91.31
2018-08-13T21:30:59.249Z,91.72
2018-08-13T21:33:28.875Z,90.73
2018-08-13T21:35:59.289Z,94.39
2018-08-13T21:38:28.852Z,96.40
2018-08-13T21:40:58.421Z,96.16
2018-08-13T21:43:28.086Z,94.56
2018-08-13T21:45:57.523Z,94.38
2018-08-13T21:48:26.959Z,94.59
2018-08-13T21:50:56.427Z,94.65
2018-08-13T21:53:25.818Z,96.66
2018-08-13T21:55:55.104Z,96.18
2018-08-13T21:58:25.101Z,93.94
2018-08-13T22:00:59.619Z,95.09
2018-08-13T22:03:29.133Z,93.91
2018-08-13T22:05:58.482Z,94.95
2018-08-13T22:08:27.840Z,95.24
2018-08-13T22:10:57.330Z,94.99
2018-08-13T22:13:26.783Z,93.29
2018-08-13T22:15:56.170Z,93.57
2018-08-13T22:18:27.011Z,94.60
2018-08-13T22:20:56.502Z,95.53
2018-08-13T22:23:26.089Z,95.38
2018-08-13T22:25:56.386Z,95.22
2018-08-13T22:28:25.819Z,95.29
2018-08-13T22:30:55.183Z,95.83
2018-08-13T22:33:24.631Z,96.62
2018-08-13T22:35:54.157Z,98.21
2018-08-13T22:38:23.767Z,98.80
2018-08-13T22:40:53.306Z,96.96
2018-08-13T22:43:22.838Z,95.18
2018-08-13T22:45:52.288Z,95.62
2018-08-13T22:48:22.461Z,97.82
2018-08-13T22:50:52.017Z,98.33
2018-08-13T22:53:21.504Z,97.95
2018-08-13T22:55:50.726Z,96.27
2018-08-13T22:58:20.119Z,96.51
2018-08-13T23:00:49.634Z,96.34
2018-08-13T23:03:18.926Z,98.75
2018-08-13T23:05:48.655Z,98.91
2018-08-13T23:08:19.169Z,96.90
2018-08-13T23:10:48.786Z,97.16
2018-08-13T23:13:19.065Z,97.49
2018-08-13T23:15:48.389Z,98.61
2018-08-13T23:18:18.083Z,97.16
2018-08-13T23:20:47.622Z,98.70
2018-08-13T23:23:17.039Z,99.09
2018-08-13T23:25:48.861Z,99.98
2018-08-13T23:28:18.854Z,97.93
2018-08-13T23:30:48.164Z,97.79
2018-08-13T23:33:17.890Z,98.02
2018-08-13T23:35:47.800Z,97.89
2018-08-13T23:38:17.150Z,99.11
2018-08-13T23:40:46.700Z,99.63
2018-08-13T23:43:16.194Z,98.77
2018-08-13T23:45:45.726Z,98.11
2018-08-13T23:48:15.204Z,96.51
2018-08-13T23:50:45.583Z,95.94
2018-08-13T23:53:15.090Z,96.13
2018-08-13T23:55:44.531Z,99.02
2018-08-13T23:58:15.057Z,97.01
